sensor_id;sensor_type;location;lat;lon;timestamp;pressure;altitude;pressure_sealevel;temperature;humidity
54407;BME280;40313;50.308;30.374;2024-01-30T00:00:19;101899.88;;;7.98;63.76
54407;BME280;40313;50.308;30.374;2024-01-30T00:02:46;101900.69;;;8.01;63.57
54407;BME280;40313;50.308;30.374;2024-01-30T00:05:14;101897.13;;;8.08;63.53
54407;BME280;40313;50.308;30.374;2024-01-30T00:07:41;101906.75;;;8.00;63.55
54407;BME280;40313;50.308;30.374;2024-01-30T00:10:08;101892.03;;;7.99;63.51
54407;BME280;40313;50.308;30.374;2024-01-30T00:12:35;101905.81;;;8.10;63.49
54407;BME280;40313;50.308;30.374;2024-01-30T00:15:01;101940.38;;;8.22;63.73
54407;BME280;40313;50.308;30.374;2024-01-30T00:17:29;101926.59;;;8.10;63.51
54407;BME280;40313;50.308;30.374;2024-01-30T00:19:56;101925.69;;;8.13;63.36
54407;BME280;40313;50.308;30.374;2024-01-30T00:22:24;101922.19;;;8.20;63.61
54407;BME280;40313;50.308;30.374;2024-01-30T00:24:51;101876.44;;;7.99;63.28
54407;BME280;40313;50.308;30.374;2024-01-30T00:27:17;101909.16;;;8.22;63.44
54407;BME280;40313;50.308;30.374;2024-01-30T00:29:44;101904.00;;;8.17;63.08
54407;BME280;40313;50.308;30.374;2024-01-30T00:32:13;101903.16;;;8.15;63.25
54407;BME280;40313;50.308;30.374;2024-01-30T00:34:41;101893.75;;;8.02;63.40
54407;BME280;40313;50.308;30.374;2024-01-30T00:37:08;101874.81;;;7.89;63.62
54407;BME280;40313;50.308;30.374;2024-01-30T00:39:36;101858.28;;;7.96;63.38
54407;BME280;40313;50.308;30.374;2024-01-30T00:42:02;101911.84;;;8.11;63.23
54407;BME280;40313;50.308;30.374;2024-01-30T00:44:29;101890.16;;;8.15;63.30
54407;BME280;40313;50.308;30.374;2024-01-30T00:46:56;101890.97;;;8.22;62.95
54407;BME280;40313;50.308;30.374;2024-01-30T00:49:23;101891.03;;;8.14;62.96
54407;BME280;40313;50.308;30.374;2024-01-30T00:51:49;101888.44;;;8.12;62.95
54407;BME280;40313;50.308;30.374;2024-01-30T00:54:16;101878.06;;;8.11;62.79
54407;BME280;40313;50.308;30.374;2024-01-30T00:56:44;101888.31;;;8.25;62.29
54407;BME280;40313;50.308;30.374;2024-01-30T00:59:11;101899.63;;;8.22;62.43
54407;BME280;40313;50.308;30.374;2024-01-30T01:01:38;101847.19;;;7.75;62.45
54407;BME280;40313;50.308;30.374;2024-01-30T01:04:04;101873.13;;;7.83;62.25
54407;BME280;40313;50.308;30.374;2024-01-30T01:06:32;101862.69;;;7.88;62.32
54407;BME280;40313;50.308;30.374;2024-01-30T01:08:59;101861.00;;;7.84;62.08
54407;BME280;40313;50.308;30.374;2024-01-30T01:11:25;101859.22;;;7.86;62.21
54407;BME280;40313;50.308;30.374;2024-01-30T01:13:53;101876.66;;;7.76;62.17
54407;BME280;40313;50.308;30.374;2024-01-30T01:16:20;101850.66;;;7.74;62.32
54407;BME280;40313;50.308;30.374;2024-01-30T01:18:46;101865.31;;;7.85;62.33
54407;BME280;40313;50.308;30.374;2024-01-30T01:21:13;101847.22;;;7.74;62.18
54407;BME280;40313;50.308;30.374;2024-01-30T01:23:39;101871.34;;;7.87;61.93
54407;BME280;40313;50.308;30.374;2024-01-30T01:26:08;101819.63;;;7.62;62.08
54407;BME280;40313;50.308;30.374;2024-01-30T01:28:35;101822.31;;;7.51;62.30
54407;BME280;40313;50.308;30.374;2024-01-30T01:31:03;101850.72;;;7.68;61.90
54407;BME280;40313;50.308;30.374;2024-01-30T01:33:30;101819.66;;;7.59;62.16
54407;BME280;40313;50.308;30.374;2024-01-30T01:35:58;101835.19;;;7.64;61.93
54407;BME280;40313;50.308;30.374;2024-01-30T01:38:25;101842.19;;;7.55;62.04
54407;BME280;40313;50.308;30.374;2024-01-30T01:40:51;101830.06;;;7.54;62.15
54407;BME280;40313;50.308;30.374;2024-01-30T01:43:18;101821.53;;;7.40;62.26
54407;BME280;40313;50.308;30.374;2024-01-30T01:45:45;101800.03;;;7.24;62.36
54407;BME280;40313;50.308;30.374;2024-01-30T01:48:13;101812.31;;;6.97;62.50
54407;BME280;40313;50.308;30.374;2024-01-30T01:50:41;101771.69;;;6.96;62.50
54407;BME280;40313;50.308;30.374;2024-01-30T01:53:09;101806.97;;;7.20;62.47
54407;BME280;40313;50.308;30.374;2024-01-30T01:55:35;101802.66;;;7.18;62.41
54407;BME280;40313;50.308;30.374;2024-01-30T01:58:02;101800.03;;;7.24;62.41
54407;BME280;40313;50.308;30.374;2024-01-30T02:00:29;101760.44;;;6.94;62.32
54407;BME280;40313;50.308;30.374;2024-01-30T02:02:56;101770.03;;;6.87;62.56
54407;BME280;40313;50.308;30.374;2024-01-30T02:05:25;101762.16;;;6.95;62.51
54407;BME280;40313;50.308;30.374;2024-01-30T02:07:52;101772.44;;;7.11;62.60
54407;BME280;40313;50.308;30.374;2024-01-30T02:10:19;101744.94;;;6.86;62.63
54407;BME280;40313;50.308;30.374;2024-01-30T02:12:45;101769.75;;;7.20;62.52
54407;BME280;40313;50.308;30.374;2024-01-30T02:15:13;101780.44;;;6.77;63.47
54407;BME280;40313;50.308;30.374;2024-01-30T02:17:40;101783.53;;;7.28;62.67
54407;BME280;40313;50.308;30.374;2024-01-30T02:20:07;101743.28;;;6.74;62.42
54407;BME280;40313;50.308;30.374;2024-01-30T02:22:36;101755.09;;;7.19;62.63
54407;BME280;40313;50.308;30.374;2024-01-30T02:25:04;101750.63;;;7.30;62.39
54407;BME280;40313;50.308;30.374;2024-01-30T02:27:30;101781.75;;;7.36;62.34
54407;BME280;40313;50.308;30.374;2024-01-30T02:29:57;101737.84;;;7.08;62.24
54407;BME280;40313;50.308;30.374;2024-01-30T02:32:23;101787.19;;;7.05;63.05
54407;BME280;40313;50.308;30.374;2024-01-30T02:34:50;101776.63;;;7.27;62.70
54407;BME280;40313;50.308;30.374;2024-01-30T02:37:17;101788.06;;;7.06;62.40
54407;BME280;40313;50.308;30.374;2024-01-30T02:39:45;101779.44;;;6.99;62.85
54407;BME280;40313;50.308;30.374;2024-01-30T02:42:12;101781.91;;;7.18;62.49
54407;BME280;40313;50.308;30.374;2024-01-30T02:44:38;101786.34;;;7.02;62.50
54407;BME280;40313;50.308;30.374;2024-01-30T02:47:05;101751.97;;;6.70;62.79
54407;BME280;40313;50.308;30.374;2024-01-30T02:49:32;101746.81;;;6.67;62.96
54407;BME280;40313;50.308;30.374;2024-01-30T02:51:58;101776.25;;;6.55;63.23
54407;BME280;40313;50.308;30.374;2024-01-30T02:54:25;101739.97;;;6.52;62.59
54407;BME280;40313;50.308;30.374;2024-01-30T02:56:53;101763.28;;;6.55;62.38
54407;BME280;40313;50.308;30.374;2024-01-30T02:59:20;101757.09;;;6.78;62.40
54407;BME280;40313;50.308;30.374;2024-01-30T03:01:46;101779.53;;;6.85;62.62
54407;BME280;40313;50.308;30.374;2024-01-30T03:04:13;101750.97;;;6.88;62.05
54407;BME280;40313;50.308;30.374;2024-01-30T03:06:44;101777.03;;;6.68;62.37
54407;BME280;40313;50.308;30.374;2024-01-30T03:09:12;101751.16;;;6.61;62.72
54407;BME280;40313;50.308;30.374;2024-01-30T03:11:38;101778.16;;;5.90;63.37
54407;BME280;40313;50.308;30.374;2024-01-30T03:14:06;101736.63;;;6.32;63.62
54407;BME280;40313;50.308;30.374;2024-01-30T03:16:36;101742.72;;;6.23;62.95
54407;BME280;40313;50.308;30.374;2024-01-30T03:19:03;101769.31;;;6.53;63.56
54407;BME280;40313;50.308;30.374;2024-01-30T03:21:30;101762.31;;;6.72;62.82
54407;BME280;40313;50.308;30.374;2024-01-30T03:23:57;101767.38;;;6.92;62.32
54407;BME280;40313;50.308;30.374;2024-01-30T03:26:23;101719.97;;;6.67;62.43
54407;BME280;40313;50.308;30.374;2024-01-30T03:28:50;101760.53;;;6.82;62.49
54407;BME280;40313;50.308;30.374;2024-01-30T03:31:18;101719.25;;;6.48;62.92
54407;BME280;40313;50.308;30.374;2024-01-30T03:33:45;101744.97;;;6.83;62.33
54407;BME280;40313;50.308;30.374;2024-01-30T03:36:11;101730.31;;;6.71;62.34
54407;BME280;40313;50.308;30.374;2024-01-30T03:38:37;101731.19;;;6.75;62.38
54407;BME280;40313;50.308;30.374;2024-01-30T03:41:07;101743.13;;;6.99;62.14
54407;BME280;40313;50.308;30.374;2024-01-30T03:43:34;101699.38;;;6.47;62.37
54407;BME280;40313;50.308;30.374;2024-01-30T03:46:01;101749.63;;;6.19;62.55
54407;BME280;40313;50.308;30.374;2024-01-30T03:48:29;101722.75;;;6.34;63.01
54407;BME280;40313;50.308;30.374;2024-01-30T03:50:55;101747.00;;;6.32;63.34
54407;BME280;40313;50.308;30.374;2024-01-30T03:53:22;101753.97;;;6.11;63.53
54407;BME280;40313;50.308;30.374;2024-01-30T03:55:49;101733.94;;;6.44;63.05
54407;BME280;40313;50.308;30.374;2024-01-30T03:58:15;101704.66;;;6.28;62.63
54407;BME280;40313;50.308;30.374;2024-01-30T04:00:42;101696.03;;;6.28;62.35
54407;BME280;40313;50.308;30.374;2024-01-30T04:03:09;101722.84;;;6.20;62.92
54407;BME280;40313;50.308;30.374;2024-01-30T04:05:36;101754.63;;;6.58;62.76
54407;BME280;40313;50.308;30.374;2024-01-30T04:08:04;101735.59;;;6.62;62.34
54407;BME280;40313;50.308;30.374;2024-01-30T04:10:30;101732.13;;;6.57;62.12
54407;BME280;40313;50.308;30.374;2024-01-30T04:12:57;101738.22;;;6.53;62.27
54407;BME280;40313;50.308;30.374;2024-01-30T04:15:24;101746.91;;;6.50;62.07
54407;BME280;40313;50.308;30.374;2024-01-30T04:17:51;101719.38;;;6.18;62.53
54407;BME280;40313;50.308;30.374;2024-01-30T04:20:17;101747.94;;;6.08;63.41
54407;BME280;40313;50.308;30.374;2024-01-30T04:22:46;101737.53;;;6.17;63.11
54407;BME280;40313;50.308;30.374;2024-01-30T04:25:13;101706.50;;;6.00;63.19
54407;BME280;40313;50.308;30.374;2024-01-30T04:27:41;101735.91;;;5.99;62.94
54407;BME280;40313;50.308;30.374;2024-01-30T04:30:08;101720.34;;;6.00;62.78
54407;BME280;40313;50.308;30.374;2024-01-30T04:32:36;101751.38;;;6.10;63.43
54407;BME280;40313;50.308;30.374;2024-01-30T04:35:03;101751.44;;;5.86;63.71
54407;BME280;40313;50.308;30.374;2024-01-30T04:37:30;101747.06;;;6.12;63.11
54407;BME280;40313;50.308;30.374;2024-01-30T04:39:58;101758.31;;;5.95;63.91
54407;BME280;40313;50.308;30.374;2024-01-30T04:42:30;101728.09;;;6.07;63.67
54407;BME280;40313;50.308;30.374;2024-01-30T04:44:57;101715.09;;;6.13;63.24
54407;BME280;40313;50.308;30.374;2024-01-30T04:47:25;101741.88;;;6.12;63.39
54407;BME280;40313;50.308;30.374;2024-01-30T04:49:55;101723.75;;;6.09;62.90
54407;BME280;40313;50.308;30.374;2024-01-30T04:52:21;101721.13;;;6.19;63.19
54407;BME280;40313;50.308;30.374;2024-01-30T04:54:48;101741.81;;;6.27;62.88
54407;BME280;40313;50.308;30.374;2024-01-30T04:57:16;101747.91;;;6.23;62.91
54407;BME280;40313;50.308;30.374;2024-01-30T04:59:42;101698.75;;;5.83;63.24
54407;BME280;40313;50.308;30.374;2024-01-30T05:02:09;101739.34;;;5.99;63.14
54407;BME280;40313;50.308;30.374;2024-01-30T05:04:38;101716.91;;;5.83;64.03
54407;BME280;40313;50.308;30.374;2024-01-30T05:07:09;101730.69;;;6.03;63.94
54407;BME280;40313;50.308;30.374;2024-01-30T05:09:35;101700.47;;;6.01;63.48
54407;BME280;40313;50.308;30.374;2024-01-30T05:12:02;101726.31;;;6.18;63.42
54407;BME280;40313;50.308;30.374;2024-01-30T05:14:30;101739.22;;;6.24;62.99
54407;BME280;40313;50.308;30.374;2024-01-30T05:16:57;101722.94;;;5.86;63.52
54407;BME280;40313;50.308;30.374;2024-01-30T05:19:28;101734.91;;;6.21;63.18
54407;BME280;40313;50.308;30.374;2024-01-30T05:21:55;101731.38;;;6.41;62.94
54407;BME280;40313;50.308;30.374;2024-01-30T05:24:21;101728.75;;;6.46;62.73
54407;BME280;40313;50.308;30.374;2024-01-30T05:26:48;101708.13;;;6.30;63.16
54407;BME280;40313;50.308;30.374;2024-01-30T05:29:16;101709.00;;;6.26;62.86
54407;BME280;40313;50.308;30.374;2024-01-30T05:31:47;101702.84;;;6.43;62.67
54407;BME280;40313;50.308;30.374;2024-01-30T05:34:14;101691.78;;;6.08;63.68
54407;BME280;40313;50.308;30.374;2024-01-30T05:36:40;101713.31;;;6.24;63.06
54407;BME280;40313;50.308;30.374;2024-01-30T05:39:07;101731.44;;;6.24;63.39
54407;BME280;40313;50.308;30.374;2024-01-30T05:41:36;101718.47;;;6.30;63.11
54407;BME280;40313;50.308;30.374;2024-01-30T05:44:03;101709.97;;;6.00;63.88
54407;BME280;40313;50.308;30.374;2024-01-30T05:46:30;101750.53;;;6.08;64.03
54407;BME280;40313;50.308;30.374;2024-01-30T05:48:58;101719.50;;;5.77;64.56
54407;BME280;40313;50.308;30.374;2024-01-30T05:51:24;101724.66;;;5.98;63.59
54407;BME280;40313;50.308;30.374;2024-01-30T05:53:51;101746.91;;;6.43;64.11
54407;BME280;40313;50.308;30.374;2024-01-30T05:56:17;101739.13;;;6.46;63.56
54407;BME280;40313;50.308;30.374;2024-01-30T05:58:44;101752.97;;;6.46;63.46
54407;BME280;40313;50.308;30.374;2024-01-30T06:01:11;101746.00;;;6.53;63.45
54407;BME280;40313;50.308;30.374;2024-01-30T06:03:37;101741.59;;;6.70;63.30
54407;BME280;40313;50.308;30.374;2024-01-30T06:06:06;101714.88;;;6.53;62.71
54407;BME280;40313;50.308;30.374;2024-01-30T06:08:32;101745.81;;;6.84;62.94
54407;BME280;40313;50.308;30.374;2024-01-30T06:10:59;101736.34;;;6.78;63.05
54407;BME280;40313;50.308;30.374;2024-01-30T06:13:26;101737.34;;;6.52;63.36
54407;BME280;40313;50.308;30.374;2024-01-30T06:15:53;101733.94;;;6.49;63.64
54407;BME280;40313;50.308;30.374;2024-01-30T06:18:19;101743.28;;;6.76;63.46
54407;BME280;40313;50.308;30.374;2024-01-30T06:20:46;101744.09;;;6.80;63.60
54407;BME280;40313;50.308;30.374;2024-01-30T06:23:14;101731.97;;;6.85;63.39
54407;BME280;40313;50.308;30.374;2024-01-30T06:25:40;101720.03;;;6.62;63.89
54407;BME280;40313;50.308;30.374;2024-01-30T06:28:07;101742.28;;;6.94;63.33
54407;BME280;40313;50.308;30.374;2024-01-30T06:30:33;101723.19;;;7.03;63.08
54407;BME280;40313;50.308;30.374;2024-01-30T06:33:00;101742.16;;;7.09;63.44
54407;BME280;40313;50.308;30.374;2024-01-30T06:35:27;101717.19;;;6.96;63.48
54407;BME280;40313;50.308;30.374;2024-01-30T06:37:54;101744.59;;;7.30;63.62
54407;BME280;40313;50.308;30.374;2024-01-30T06:40:22;101755.19;;;7.05;63.77
54407;BME280;40313;50.308;30.374;2024-01-30T06:42:48;101729.13;;;7.14;63.56
54407;BME280;40313;50.308;30.374;2024-01-30T06:45:15;101742.66;;;7.53;63.42
54407;BME280;40313;50.308;30.374;2024-01-30T06:47:41;101728.97;;;7.34;63.45
54407;BME280;40313;50.308;30.374;2024-01-30T06:50:08;101722.09;;;7.27;64.05
54407;BME280;40313;50.308;30.374;2024-01-30T06:52:35;101720.97;;;7.57;63.53
54407;BME280;40313;50.308;30.374;2024-01-30T06:55:02;101688.09;;;7.55;63.08
54407;BME280;40313;50.308;30.374;2024-01-30T06:57:30;101684.72;;;7.47;63.35
54407;BME280;40313;50.308;30.374;2024-01-30T06:59:56;101679.94;;;7.84;62.71
54407;BME280;40313;50.308;30.374;2024-01-30T07:02:23;101720.50;;;7.99;62.45
54407;BME280;40313;50.308;30.374;2024-01-30T07:04:50;101682.00;;;7.54;62.67
54407;BME280;40313;50.308;30.374;2024-01-30T07:07:16;101714.69;;;7.77;62.87
54407;BME280;40313;50.308;30.374;2024-01-30T07:09:43;101662.03;;;6.69;63.66
54407;BME280;40313;50.308;30.374;2024-01-30T07:12:12;101709.75;;;7.52;63.84
54407;BME280;40313;50.308;30.374;2024-01-30T07:14:43;101713.19;;;7.57;63.71
54407;BME280;40313;50.308;30.374;2024-01-30T07:17:09;101710.44;;;7.68;63.37
54407;BME280;40313;50.308;30.374;2024-01-30T07:19:36;101715.59;;;7.71;63.77
54407;BME280;40313;50.308;30.374;2024-01-30T07:22:02;101715.72;;;7.62;63.79
54407;BME280;40313;50.308;30.374;2024-01-30T07:24:29;101704.09;;;7.94;63.59
54407;BME280;40313;50.308;30.374;2024-01-30T07:26:56;101695.22;;;8.12;63.43
54407;BME280;40313;50.308;30.374;2024-01-30T07:29:22;101701.44;;;7.99;63.56
54407;BME280;40313;50.308;30.374;2024-01-30T07:31:50;101707.06;;;8.35;62.99
54407;BME280;40313;50.308;30.374;2024-01-30T07:34:17;101711.31;;;8.37;63.08
54407;BME280;40313;50.308;30.374;2024-01-30T07:36:45;101701.81;;;8.36;62.85
54407;BME280;40313;50.308;30.374;2024-01-30T07:39:13;101690.81;;;8.16;62.45
54407;BME280;40313;50.308;30.374;2024-01-30T07:41:40;101676.09;;;8.16;62.92
54407;BME280;40313;50.308;30.374;2024-01-30T07:44:06;101690.53;;;8.37;62.78
54407;BME280;40313;50.308;30.374;2024-01-30T07:46:33;101708.66;;;8.46;62.85
54407;BME280;40313;50.308;30.374;2024-01-30T07:49:01;101709.75;;;8.89;62.20
54407;BME280;40313;50.308;30.374;2024-01-30T07:51:28;101705.06;;;8.54;62.28
54407;BME280;40313;50.308;30.374;2024-01-30T07:53:57;101670.88;;;8.18;62.72
54407;BME280;40313;50.308;30.374;2024-01-30T07:56:23;101676.94;;;8.17;61.88
54407;BME280;40313;50.308;30.374;2024-01-30T07:58:50;101690.44;;;8.43;62.11
54407;BME280;40313;50.308;30.374;2024-01-30T08:01:17;101702.03;;;8.83;62.45
54407;BME280;40313;50.308;30.374;2024-01-30T08:03:43;101700.03;;;8.99;61.25
54407;BME280;40313;50.308;30.374;2024-01-30T08:06:11;101675.66;;;9.05;61.72
54407;BME280;40313;50.308;30.374;2024-01-30T08:08:38;101689.84;;;8.85;60.91
54407;BME280;40313;50.308;30.374;2024-01-30T08:11:04;101683.19;;;9.19;61.08
54407;BME280;40313;50.308;30.374;2024-01-30T08:13:31;101670.06;;;9.26;61.13
54407;BME280;40313;50.308;30.374;2024-01-30T08:15:58;101653.81;;;9.57;61.26
54407;BME280;40313;50.308;30.374;2024-01-30T08:18:24;101651.56;;;9.40;60.57
54407;BME280;40313;50.308;30.374;2024-01-30T08:20:51;101694.66;;;9.57;60.24
54407;BME280;40313;50.308;30.374;2024-01-30T08:23:19;101677.91;;;9.70;60.05
54407;BME280;40313;50.308;30.374;2024-01-30T08:25:46;101685.28;;;9.93;60.17
54407;BME280;40313;50.308;30.374;2024-01-30T08:28:13;101684.84;;;9.71;59.61
54407;BME280;40313;50.308;30.374;2024-01-30T08:30:39;101649.97;;;9.77;59.83
54407;BME280;40313;50.308;30.374;2024-01-30T08:33:06;101648.50;;;10.06;59.60
54407;BME280;40313;50.308;30.374;2024-01-30T08:35:33;101647.34;;;9.33;59.25
54407;BME280;40313;50.308;30.374;2024-01-30T08:38:00;101652.50;;;9.80;58.99
54407;BME280;40313;50.308;30.374;2024-01-30T08:40:28;101656.59;;;10.34;59.65
54407;BME280;40313;50.308;30.374;2024-01-30T08:42:55;101663.72;;;10.24;58.65
54407;BME280;40313;50.308;30.374;2024-01-30T08:45:21;101673.75;;;10.03;58.55
54407;BME280;40313;50.308;30.374;2024-01-30T08:47:51;101669.53;;;9.98;59.36
54407;BME280;40313;50.308;30.374;2024-01-30T08:50:17;101665.41;;;10.27;59.00
54407;BME280;40313;50.308;30.374;2024-01-30T08:52:44;101643.13;;;9.26;58.61
54407;BME280;40313;50.308;30.374;2024-01-30T08:55:10;101658.47;;;8.93;59.60
54407;BME280;40313;50.308;30.374;2024-01-30T08:57:38;101635.25;;;9.74;59.41
54407;BME280;40313;50.308;30.374;2024-01-30T09:00:06;101659.41;;;10.25;58.63
54407;BME280;40313;50.308;30.374;2024-01-30T09:02:34;101652.75;;;10.10;58.82
54407;BME280;40313;50.308;30.374;2024-01-30T09:05:01;101607.91;;;9.53;58.41
54407;BME280;40313;50.308;30.374;2024-01-30T09:07:28;101656.25;;;10.10;59.78
54407;BME280;40313;50.308;30.374;2024-01-30T09:09:54;101623.53;;;10.33;58.22
54407;BME280;40313;50.308;30.374;2024-01-30T09:12:21;101630.88;;;10.56;58.39
54407;BME280;40313;50.308;30.374;2024-01-30T09:14:49;101621.13;;;9.84;58.30
54407;BME280;40313;50.308;30.374;2024-01-30T09:17:16;101624.56;;;10.26;58.11
54407;BME280;40313;50.308;30.374;2024-01-30T09:19:42;101605.94;;;10.43;58.54
54407;BME280;40313;50.308;30.374;2024-01-30T09:22:09;101618.81;;;10.50;57.63
54407;BME280;40313;50.308;30.374;2024-01-30T09:24:35;101582.72;;;10.68;58.35
54407;BME280;40313;50.308;30.374;2024-01-30T09:27:02;101624.13;;;10.46;58.41
54407;BME280;40313;50.308;30.374;2024-01-30T09:29:29;101581.91;;;9.91;58.41
54407;BME280;40313;50.308;30.374;2024-01-30T09:31:56;101605.75;;;10.13;57.81
54407;BME280;40313;50.308;30.374;2024-01-30T09:34:23;101575.72;;;10.34;57.82
54407;BME280;40313;50.308;30.374;2024-01-30T09:36:50;101591.19;;;10.42;57.55
54407;BME280;40313;50.308;30.374;2024-01-30T09:39:16;101572.19;;;10.71;57.50
54407;BME280;40313;50.308;30.374;2024-01-30T09:41:48;101555.25;;;10.86;57.81
54407;BME280;40313;50.308;30.374;2024-01-30T09:44:16;101554.34;;;11.20;57.75
54407;BME280;40313;50.308;30.374;2024-01-30T09:46:43;101586.44;;;10.92;57.09
54407;BME280;40313;50.308;30.374;2024-01-30T09:49:13;101551.72;;;10.88;57.43
54407;BME280;40313;50.308;30.374;2024-01-30T09:51:39;101581.94;;;11.60;56.61
54407;BME280;40313;50.308;30.374;2024-01-30T09:54:08;101558.06;;;11.43;56.40
54407;BME280;40313;50.308;30.374;2024-01-30T09:56:36;101544.00;;;11.47;56.27
54407;BME280;40313;50.308;30.374;2024-01-30T09:59:02;101561.22;;;11.54;56.26
54407;BME280;40313;50.308;30.374;2024-01-30T10:01:29;101533.78;;;11.67;55.64
54407;BME280;40313;50.308;30.374;2024-01-30T10:03:57;101566.88;;;11.98;55.50
54407;BME280;40313;50.308;30.374;2024-01-30T10:06:26;101538.50;;;11.84;55.75
54407;BME280;40313;50.308;30.374;2024-01-30T10:08:54;101553.56;;;12.06;55.07
54407;BME280;40313;50.308;30.374;2024-01-30T10:11:20;101536.66;;;11.30;55.08
54407;BME280;40313;50.308;30.374;2024-01-30T10:13:47;101519.63;;;11.46;55.86
54407;BME280;40313;50.308;30.374;2024-01-30T10:16:14;101564.72;;;10.90;56.33
54407;BME280;40313;50.308;30.374;2024-01-30T10:18:42;101552.56;;;11.52;55.85
54407;BME280;40313;50.308;30.374;2024-01-30T10:21:08;101551.97;;;12.02;55.12
54407;BME280;40313;50.308;30.374;2024-01-30T10:23:38;101546.06;;;11.95;55.71
54407;BME280;40313;50.308;30.374;2024-01-30T10:26:04;101540.28;;;12.12;55.72
54407;BME280;40313;50.308;30.374;2024-01-30T10:28:33;101519.69;;;11.73;54.88
54407;BME280;40313;50.308;30.374;2024-01-30T10:31:00;101525.69;;;12.05;54.67
54407;BME280;40313;50.308;30.374;2024-01-30T10:33:27;101515.84;;;11.56;54.37
54407;BME280;40313;50.308;30.374;2024-01-30T10:35:55;101552.44;;;12.13;54.60
54407;BME280;40313;50.308;30.374;2024-01-30T10:38:28;101546.31;;;12.14;54.67
54407;BME280;40313;50.308;30.374;2024-01-30T10:40:58;101542.91;;;12.12;54.31
54407;BME280;40313;50.308;30.374;2024-01-30T10:43:30;101547.44;;;11.77;54.91
54407;BME280;40313;50.308;30.374;2024-01-30T10:46:03;101512.00;;;11.97;54.33
54407;BME280;40313;50.308;30.374;2024-01-30T10:48:36;101520.75;;;11.96;54.72
54407;BME280;40313;50.308;30.374;2024-01-30T10:51:06;101542.31;;;11.14;55.19
54407;BME280;40313;50.308;30.374;2024-01-30T10:53:36;101535.63;;;11.35;54.93
54407;BME280;40313;50.308;30.374;2024-01-30T10:56:06;101529.78;;;11.26;55.47
54407;BME280;40313;50.308;30.374;2024-01-30T10:58:34;101534.66;;;11.68;54.56
54407;BME280;40313;50.308;30.374;2024-01-30T11:01:01;101508.84;;;11.57;55.10
54407;BME280;40313;50.308;30.374;2024-01-30T11:03:29;101522.56;;;11.35;55.24
54407;BME280;40313;50.308;30.374;2024-01-30T11:05:59;101536.47;;;11.66;55.30
54407;BME280;40313;50.308;30.374;2024-01-30T11:08:26;101527.78;;;12.22;54.79
54407;BME280;40313;50.308;30.374;2024-01-30T11:10:55;101492.41;;;11.82;53.86
54407;BME280;40313;50.308;30.374;2024-01-30T11:13:26;101537.88;;;11.48;54.72
54407;BME280;40313;50.308;30.374;2024-01-30T11:15:53;101495.81;;;12.12;54.09
54407;BME280;40313;50.308;30.374;2024-01-30T11:18:23;101525.22;;;12.19;53.60
54407;BME280;40313;50.308;30.374;2024-01-30T11:20:50;101497.25;;;11.94;53.96
54407;BME280;40313;50.308;30.374;2024-01-30T11:23:17;101496.09;;;12.03;53.42
54407;BME280;40313;50.308;30.374;2024-01-30T11:25:44;101537.75;;;12.88;53.89
54407;BME280;40313;50.308;30.374;2024-01-30T11:28:13;101527.88;;;12.71;53.49
54407;BME280;40313;50.308;30.374;2024-01-30T11:30:42;101513.38;;;12.35;53.04
54407;BME280;40313;50.308;30.374;2024-01-30T11:33:10;101514.47;;;12.28;53.31
54407;BME280;40313;50.308;30.374;2024-01-30T11:35:38;101482.28;;;12.51;53.72
54407;BME280;40313;50.308;30.374;2024-01-30T11:38:06;101489.34;;;12.49;53.44
54407;BME280;40313;50.308;30.374;2024-01-30T11:40:34;101470.63;;;11.81;54.25
54407;BME280;40313;50.308;30.374;2024-01-30T11:43:02;101487.41;;;12.54;53.91
54407;BME280;40313;50.308;30.374;2024-01-30T11:45:30;101462.41;;;12.94;53.99
54407;BME280;40313;50.308;30.374;2024-01-30T11:47:59;101485.88;;;13.21;53.48
54407;BME280;40313;50.308;30.374;2024-01-30T11:50:28;101492.00;;;13.20;53.35
54407;BME280;40313;50.308;30.374;2024-01-30T11:52:55;101475.84;;;12.85;52.58
54407;BME280;40313;50.308;30.374;2024-01-30T11:55:23;101472.03;;;12.45;52.96
54407;BME280;40313;50.308;30.374;2024-01-30T11:57:50;101469.34;;;12.47;53.52
54407;BME280;40313;50.308;30.374;2024-01-30T12:00:17;101462.50;;;12.17;52.94
54407;BME280;40313;50.308;30.374;2024-01-30T12:02:49;101473.75;;;12.46;53.75
54407;BME280;40313;50.308;30.374;2024-01-30T12:05:19;101456.19;;;12.23;53.14
54407;BME280;40313;50.308;30.374;2024-01-30T12:07:46;101482.44;;;12.95;53.47
54407;BME280;40313;50.308;30.374;2024-01-30T12:10:15;101444.13;;;12.93;53.16
54407;BME280;40313;50.308;30.374;2024-01-30T12:12:45;101459.22;;;12.86;52.74
54407;BME280;40313;50.308;30.374;2024-01-30T12:15:12;101446.50;;;12.75;52.99
54407;BME280;40313;50.308;30.374;2024-01-30T12:17:39;101445.63;;;12.76;52.88
54407;BME280;40313;50.308;30.374;2024-01-30T12:20:11;101473.94;;;12.90;52.96
54407;BME280;40313;50.308;30.374;2024-01-30T12:22:43;101477.47;;;13.37;53.12
54407;BME280;40313;50.308;30.374;2024-01-30T12:25:11;101446.38;;;13.26;52.96
54407;BME280;40313;50.308;30.374;2024-01-30T12:27:39;101450.31;;;13.14;52.95
54407;BME280;40313;50.308;30.374;2024-01-30T12:30:07;101478.50;;;13.09;53.29
54407;BME280;40313;50.308;30.374;2024-01-30T12:32:34;101477.38;;;13.14;53.18
54407;BME280;40313;50.308;30.374;2024-01-30T12:35:01;101467.72;;;13.62;53.29
54407;BME280;40313;50.308;30.374;2024-01-30T12:37:28;101457.59;;;13.53;52.69
54407;BME280;40313;50.308;30.374;2024-01-30T12:39:56;101434.75;;;13.35;52.86
54407;BME280;40313;50.308;30.374;2024-01-30T12:42:23;101457.97;;;13.44;52.80
54407;BME280;40313;50.308;30.374;2024-01-30T12:44:50;101442.78;;;13.52;52.68
54407;BME280;40313;50.308;30.374;2024-01-30T12:47:16;101438.44;;;13.51;53.23